Time;durP1;ratioP1;P1;durP2;ratioP2;P2;SDS_P1;SDS_P2;PMS_P1;PMS_P2;Temp;Humidity;BMP_temperature;BMP_pressure;BME280_temperature;BME280_humidity;BME280_pressure;Samples;Min_cycle;Max_cycle;Signal;HPM_P1;HPM_P2
2022/08/05 00:00:55;;;;;;;6.07;3.20;;;20.10;99.90;;;;;;5012475;28;20084;-59
2022/08/05 00:03:20;;;;;;;6.78;3.78;;;20.10;99.90;;;;;;5012879;28;20393;-60
2022/08/05 00:05:46;;;;;;;5.70;2.80;;;20.10;99.90;;;;;;5014501;28;20041;-60
2022/08/05 00:08:12;;;;;;;5.63;2.22;;;20.10;99.90;;;;;;5027028;28;20124;-60
2022/08/05 00:10:37;;;;;;;6.93;3.20;;;20.10;99.90;;;;;;5013067;28;20033;-60
2022/08/05 00:13:03;;;;;;;6.75;2.78;;;20.00;99.90;;;;;;5018052;28;20037;-60
2022/08/05 00:15:29;;;;;;;5.63;2.70;;;20.00;99.90;;;;;;5050838;28;20039;-60
2022/08/05 00:17:54;;;;;;;4.63;2.38;;;19.90;99.90;;;;;;5033132;28;20463;-60
2022/08/05 00:20:20;;;;;;;7.53;2.65;;;19.90;99.90;;;;;;5011235;28;20041;-60
2022/08/05 00:22:45;;;;;;;6.57;2.78;;;19.90;99.90;;;;;;5011450;28;20037;-62
2022/08/05 00:25:11;;;;;;;7.55;2.30;;;20.00;99.90;;;;;;5030367;28;20607;-60
2022/08/05 00:27:37;;;;;;;4.75;2.50;;;20.00;99.90;;;;;;5022205;28;20072;-60
2022/08/05 00:30:04;;;;;;;8.10;2.88;;;20.10;99.90;;;;;;5018494;28;20046;-60
2022/08/05 00:32:30;;;;;;;7.30;2.72;;;20.00;99.90;;;;;;5026573;28;20081;-60
2022/08/05 00:34:55;;;;;;;6.15;2.80;;;20.00;99.90;;;;;;5026251;28;20440;-60
2022/08/05 00:37:21;;;;;;;8.00;2.70;;;19.90;99.90;;;;;;5032751;28;20133;-61
2022/08/05 00:39:46;;;;;;;8.73;2.50;;;20.00;99.90;;;;;;5021340;28;20094;-60
2022/08/05 00:42:15;;;;;;;6.55;2.30;;;20.00;99.90;;;;;;5047170;28;20043;-59
2022/08/05 00:44:41;;;;;;;7.97;2.60;;;19.90;99.90;;;;;;5033299;28;20033;-60
2022/08/05 00:47:07;;;;;;;7.05;2.88;;;20.00;99.90;;;;;;5018665;28;20056;-60
2022/08/05 00:49:32;;;;;;;6.05;2.30;;;19.90;99.90;;;;;;5011783;28;20041;-59
2022/08/05 00:51:58;;;;;;;6.53;2.75;;;19.90;99.90;;;;;;5026395;28;20441;-59
2022/08/05 00:54:24;;;;;;;7.20;2.60;;;19.90;99.90;;;;;;5013735;28;20052;-59
2022/08/05 00:56:50;;;;;;;6.68;2.60;;;19.90;99.90;;;;;;5013086;28;20045;-60
2022/08/05 00:59:15;;;;;;;7.35;2.60;;;19.90;99.90;;;;;;5045071;28;20036;-60
2022/08/05 01:01:41;;;;;;;7.25;2.60;;;19.80;99.90;;;;;;5022639;28;20049;-59
2022/08/05 01:04:06;;;;;;;6.15;2.67;;;19.80;99.90;;;;;;5032709;28;20046;-59
2022/08/05 01:06:32;;;;;;;6.97;2.60;;;19.80;99.90;;;;;;5033023;28;20067;-59
2022/08/05 01:08:59;;;;;;;7.63;2.65;;;19.70;99.90;;;;;;5049954;28;20045;-59
2022/08/05 01:11:32;;;;;;;5.15;2.53;;;19.70;99.90;;;;;;5018412;28;20060;-59
2022/08/05 01:14:03;;;;;;;10.13;2.53;;;19.80;99.90;;;;;;5003658;28;20041;-61
2022/08/05 01:16:46;;;;;;;6.30;2.72;;;19.70;99.90;;;;;;5028731;28;20458;-60
2022/08/05 01:19:21;;;;;;;7.03;3.15;;;19.70;99.90;;;;;;5015585;28;20116;-59
2022/08/05 01:22:01;;;;;;;7.90;2.95;;;19.60;99.90;;;;;;5027385;28;20040;-58
2022/08/05 01:24:42;;;;;;;6.75;2.90;;;19.70;99.90;;;;;;5053758;28;20052;-60
2022/08/05 01:27:47;;;;;;;6.32;2.63;;;19.60;99.90;;;;;;5036382;28;20044;-59
2022/08/05 01:30:13;;;;;;;4.57;2.17;;;19.70;99.90;;;;;;5020971;28;20526;-58
2022/08/05 01:32:43;;;;;;;8.38;2.70;;;19.70;99.90;;;;;;5053594;28;20074;-59
2022/08/05 01:35:17;;;;;;;8.25;2.75;;;19.60;99.90;;;;;;5005047;28;20124;-59
2022/08/05 01:37:52;;;;;;;7.75;3.13;;;19.70;99.90;;;;;;5015928;28;20324;-59
2022/08/05 01:40:22;;;;;;;5.50;2.55;;;19.60;99.90;;;;;;5016177;28;20041;-59
2022/08/05 01:42:50;;;;;;;5.95;2.63;;;19.60;99.90;;;;;;5045489;28;20048;-59
2022/08/05 01:45:19;;;;;;;5.50;2.35;;;19.60;99.90;;;;;;5016092;28;20052;-59
2022/08/05 01:47:47;;;;;;;5.25;2.83;;;19.60;99.90;;;;;;5022668;28;20421;-59
2022/08/05 01:50:26;;;;;;;7.35;2.33;;;19.60;99.90;;;;;;5025995;28;20080;-59
2022/08/05 01:52:54;;;;;;;5.47;2.47;;;19.60;99.90;;;;;;5026643;28;20056;-60
2022/08/05 01:55:22;;;;;;;6.18;2.40;;;19.60;99.90;;;;;;5023132;28;20045;-60
2022/08/05 01:57:51;;;;;;;6.13;2.70;;;19.40;99.90;;;;;;5004615;28;20048;-59
2022/08/05 02:00:17;;;;;;;8.15;3.10;;;19.40;99.90;;;;;;5042716;28;20615;-59
2022/08/05 02:02:52;;;;;;;6.03;2.90;;;19.40;99.90;;;;;;5051079;28;20056;-59
2022/08/05 02:05:19;;;;;;;8.45;2.22;;;19.30;99.90;;;;;;5035672;28;20485;-60
2022/08/05 02:07:45;;;;;;;5.50;2.45;;;19.20;99.90;;;;;;5035492;28;20041;-60
2022/08/05 02:10:11;;;;;;;8.77;3.03;;;19.40;99.90;;;;;;5032535;28;20037;-59
2022/08/05 02:12:55;;;;;;;6.68;2.83;;;19.30;99.90;;;;;;5033601;28;20370;-60
2022/08/05 02:15:25;;;;;;;7.72;2.72;;;19.30;99.90;;;;;;5025743;28;20041;-60
2022/08/05 02:18:02;;;;;;;6.90;2.78;;;19.30;99.90;;;;;;5017440;28;20080;-60
2022/08/05 02:20:36;;;;;;;7.30;2.67;;;19.30;99.90;;;;;;5033037;28;20083;-60
2022/08/05 02:23:07;;;;;;;7.55;2.85;;;19.30;99.90;;;;;;5031050;28;20049;-60
2022/08/05 02:25:35;;;;;;;5.45;2.53;;;19.30;99.90;;;;;;5024051;28;20192;-59
2022/08/05 02:28:03;;;;;;;6.82;3.08;;;19.20;99.90;;;;;;5019362;28;20070;-59
2022/08/05 02:30:39;;;;;;;8.45;2.72;;;19.10;99.90;;;;;;5017189;28;20049;-59
2022/08/05 02:33:06;;;;;;;7.70;3.08;;;19.10;99.90;;;;;;5014875;28;20080;-60
2022/08/05 02:35:34;;;;;;;7.47;2.92;;;19.10;99.90;;;;;;5014161;28;20366;-59
2022/08/05 02:38:01;;;;;;;7.00;3.10;;;19.10;99.90;;;;;;5015447;28;20049;-59
2022/08/05 02:40:27;;;;;;;9.45;3.28;;;19.00;99.90;;;;;;4996184;28;20033;-60
2022/08/05 02:42:54;;;;;;;6.43;2.95;;;19.00;99.90;;;;;;5022572;28;20044;-60
2022/08/05 02:45:22;;;;;;;6.75;3.50;;;18.90;99.90;;;;;;5015083;28;20399;-60
2022/08/05 02:47:50;;;;;;;7.68;3.58;;;18.90;99.90;;;;;;5032515;28;20373;-59
2022/08/05 02:50:17;;;;;;;7.72;3.63;;;18.80;99.90;;;;;;5024939;28;20042;-61
2022/08/05 02:52:44;;;;;;;5.85;3.30;;;18.90;99.90;;;;;;5026324;28;20041;-60
2022/08/05 02:55:10;;;;;;;7.22;3.33;;;18.90;99.90;;;;;;5014906;28;20049;-59
2022/08/05 02:57:38;;;;;;;8.52;3.63;;;18.90;99.90;;;;;;5014665;28;20080;-60
2022/08/05 03:00:05;;;;;;;5.75;3.40;;;18.90;99.90;;;;;;5012780;28;20585;-60
2022/08/05 03:02:36;;;;;;;8.30;3.88;;;18.80;99.90;;;;;;5014604;28;20374;-59
2022/08/05 03:05:05;;;;;;;7.35;3.53;;;18.80;99.90;;;;;;5032128;28;20029;-59
2022/08/05 03:07:32;;;;;;;7.80;3.45;;;18.80;99.90;;;;;;5014282;28;20054;-59
2022/08/05 03:09:58;;;;;;;8.85;3.90;;;18.80;99.90;;;;;;5013399;28;20049;-60
2022/08/05 03:12:31;;;;;;;8.60;3.60;;;18.80;99.90;;;;;;5030291;28;20045;-59
2022/08/05 03:14:57;;;;;;;6.47;3.53;;;18.80;99.90;;;;;;5013141;28;20172;-58
2022/08/05 03:17:23;;;;;;;7.22;3.42;;;18.80;99.90;;;;;;5012651;28;20157;-58
2022/08/05 03:19:48;;;;;;;7.38;3.60;;;18.70;99.90;;;;;;5029586;28;20049;-59
2022/08/05 03:22:14;;;;;;;7.20;3.63;;;18.70;99.90;;;;;;5012386;28;20049;-59
2022/08/05 03:24:43;;;;;;;7.30;3.58;;;18.80;99.90;;;;;;5008590;28;20516;-58
2022/08/05 03:27:09;;;;;;;7.38;3.90;;;18.70;99.90;;;;;;5019680;28;20124;-59
2022/08/05 03:29:35;;;;;;;7.90;3.67;;;18.70;99.90;;;;;;5022576;28;20045;-58
2022/08/05 03:32:02;;;;;;;10.20;4.68;;;18.70;99.90;;;;;;5027731;28;20045;-59
2022/08/05 03:34:27;;;;;;;7.28;3.75;;;18.70;99.90;;;;;;5013566;28;20055;-59
2022/08/05 03:36:53;;;;;;;6.10;3.58;;;18.70;99.90;;;;;;5014935;28;20049;-59
2022/08/05 03:39:19;;;;;;;7.65;3.75;;;18.70;99.90;;;;;;5031179;28;20037;-60
2022/08/05 03:41:44;;;;;;;9.20;3.72;;;18.70;99.90;;;;;;5027212;28;20040;-59
2022/08/05 03:44:10;;;;;;;6.03;3.17;;;18.70;99.90;;;;;;5014829;28;20029;-59
2022/08/05 03:46:36;;;;;;;5.57;3.47;;;18.70;99.90;;;;;;5031747;28;20045;-59
2022/08/05 03:49:01;;;;;;;6.53;3.60;;;18.70;99.90;;;;;;5031271;28;20045;-59
2022/08/05 03:51:29;;;;;;;5.63;3.03;;;18.70;99.90;;;;;;5039961;28;20033;-59
2022/08/05 03:54:02;;;;;;;6.57;3.15;;;18.70;99.90;;;;;;5032034;28;20470;-59
2022/08/05 03:56:35;;;;;;;6.82;2.95;;;18.80;99.90;;;;;;5014057;28;20449;-58
2022/08/05 03:59:16;;;;;;;6.03;2.97;;;18.80;99.90;;;;;;5013807;28;20156;-58
2022/08/05 04:01:45;;;;;;;6.60;3.10;;;18.80;99.90;;;;;;5031060;28;20443;-59
2022/08/05 04:04:15;;;;;;;5.00;3.08;;;18.80;99.90;;;;;;5017368;28;20074;-60
2022/08/05 04:06:42;;;;;;;7.55;3.25;;;18.80;99.90;;;;;;5031811;28;20037;-59
2022/08/05 04:09:08;;;;;;;6.90;3.05;;;18.90;99.90;;;;;;5031398;28;20033;-59
2022/08/05 04:11:35;;;;;;;6.32;3.10;;;18.90;99.90;;;;;;5030687;28;20099;-59
2022/08/05 04:14:02;;;;;;;6.50;3.03;;;18.80;99.90;;;;;;5031127;28;20089;-58
2022/08/05 04:16:28;;;;;;;5.18;2.65;;;18.80;99.90;;;;;;5032238;28;20052;-59
2022/08/05 04:18:54;;;;;;;7.25;3.10;;;18.80;99.90;;;;;;5033323;28;20480;-59
2022/08/05 04:21:19;;;;;;;5.63;2.40;;;18.80;99.90;;;;;;5019880;28;20049;-58
2022/08/05 04:23:45;;;;;;;5.93;2.80;;;18.80;99.90;;;;;;5018364;28;20048;-59
2022/08/05 04:26:13;;;;;;;5.85;2.75;;;18.80;99.90;;;;;;5040404;28;20523;-60
2022/08/05 04:28:39;;;;;;;6.45;2.90;;;18.80;99.90;;;;;;5013500;28;20073;-59
2022/08/05 04:31:04;;;;;;;4.60;2.67;;;18.80;99.90;;;;;;5030481;28;20041;-58
2022/08/05 04:33:30;;;;;;;6.35;3.00;;;18.70;99.90;;;;;;5030774;28;20080;-59
2022/08/05 04:35:56;;;;;;;5.63;2.63;;;18.80;99.90;;;;;;5013640;28;20037;-59
2022/08/05 04:38:21;;;;;;;5.50;2.60;;;18.80;99.90;;;;;;5030967;28;20057;-59
2022/08/05 04:40:47;;;;;;;7.32;2.50;;;18.80;99.90;;;;;;5030187;28;20037;-59
2022/08/05 04:43:13;;;;;;;6.32;2.65;;;18.80;99.90;;;;;;5030964;28;20449;-59
2022/08/05 04:45:38;;;;;;;5.95;2.58;;;18.80;99.90;;;;;;4997354;28;20073;-59
2022/08/05 04:48:12;;;;;;;6.43;2.95;;;18.80;99.90;;;;;;5035065;28;20052;-59
2022/08/05 04:50:48;;;;;;;5.70;2.65;;;18.80;99.90;;;;;;5016370;28;20045;-58
2022/08/05 04:53:18;;;;;;;4.80;2.60;;;18.80;99.90;;;;;;5026562;28;20036;-58
2022/08/05 04:55:45;;;;;;;8.20;2.92;;;18.70;99.90;;;;;;5054817;28;20048;-59
2022/08/05 04:58:12;;;;;;;9.15;3.83;;;18.70;99.90;;;;;;5028724;28;20466;-59
2022/08/05 05:00:39;;;;;;;8.05;3.15;;;18.70;99.90;;;;;;5037066;28;20526;-61
2022/08/05 05:03:05;;;;;;;8.48;2.90;;;18.60;99.90;;;;;;5047634;28;20029;-59
2022/08/05 05:05:32;;;;;;;6.90;3.25;;;18.60;99.90;;;;;;5034497;28;20079;-59
2022/08/05 05:08:06;;;;;;;6.68;3.13;;;18.60;99.90;;;;;;5034536;28;20052;-59
2022/08/05 05:10:41;;;;;;;8.10;3.50;;;18.70;99.90;;;;;;5034957;28;20469;-59
2022/08/05 05:13:14;;;;;;;7.30;3.30;;;18.60;99.90;;;;;;5052968;28;20445;-59
2022/08/05 05:15:40;;;;;;;6.28;3.60;;;18.60;99.90;;;;;;5042243;28;20045;-59
2022/08/05 05:18:07;;;;;;;6.45;3.38;;;18.60;99.90;;;;;;5034069;28;20049;-59
2022/08/05 05:20:33;;;;;;;6.72;3.67;;;18.60;99.90;;;;;;5007122;28;20038;-59
2022/08/05 05:23:03;;;;;;;6.30;3.78;;;18.60;99.90;;;;;;5012648;28;20490;-59
2022/08/05 05:25:29;;;;;;;7.97;3.53;;;18.60;99.90;;;;;;5048247;28;20033;-59
2022/08/05 05:27:55;;;;;;;4.72;3.28;;;18.60;99.90;;;;;;5034126;28;20375;-58
2022/08/05 05:30:21;;;;;;;6.88;3.75;;;18.60;99.90;;;;;;5027231;28;20041;-59
2022/08/05 05:32:47;;;;;;;7.60;4.28;;;18.60;99.90;;;;;;5044452;28;20134;-58
2022/08/05 05:35:13;;;;;;;8.65;4.60;;;18.50;99.90;;;;;;5034223;28;20443;-59
2022/08/05 05:37:51;;;;;;;7.22;4.35;;;18.50;99.90;;;;;;5016283;28;20050;-59
2022/08/05 05:40:19;;;;;;;6.63;5.00;;;18.50;99.90;;;;;;5033872;28;20041;-59
2022/08/05 05:42:45;;;;;;;8.73;4.82;;;18.50;99.90;;;;;;5029070;28;20367;-59
2022/08/05 05:45:12;;;;;;;7.00;4.80;;;18.40;99.90;;;;;;5029486;28;20454;-59
2022/08/05 05:47:39;;;;;;;9.55;5.10;;;18.50;99.90;;;;;;5034251;28;20481;-59
2022/08/05 05:50:07;;;;;;;10.80;5.60;;;18.60;99.90;;;;;;5033037;28;20111;-60
2022/08/05 05:52:32;;;;;;;7.40;5.10;;;18.80;99.90;;;;;;5019142;28;20517;-58
2022/08/05 05:54:59;;;;;;;8.68;5.40;;;19.10;99.90;;;;;;5016243;28;20069;-59
2022/08/05 05:57:25;;;;;;;10.15;5.57;;;19.30;99.90;;;;;;5049507;28;20048;-59
2022/08/05 05:59:51;;;;;;;9.57;5.35;;;19.70;99.90;;;;;;5045066;28;20159;-59
2022/08/05 06:02:17;;;;;;;8.40;4.93;;;20.10;99.90;;;;;;5033535;28;20463;-58
2022/08/05 06:04:42;;;;;;;6.82;4.60;;;20.70;99.90;;;;;;5016487;28;20040;-58
2022/08/05 06:07:08;;;;;;;5.95;4.38;;;21.40;99.90;;;;;;5028042;28;20041;-59
2022/08/05 06:09:34;;;;;;;7.95;4.68;;;21.90;99.90;;;;;;5048578;28;20037;-59
2022/08/05 06:11:59;;;;;;;8.07;4.72;;;22.20;99.90;;;;;;5015705;28;20159;-59
2022/08/05 06:14:25;;;;;;;6.80;4.28;;;22.40;99.90;;;;;;5016417;28;20080;-59
2022/08/05 06:16:51;;;;;;;7.97;4.50;;;22.40;99.90;;;;;;5041129;28;20056;-59
2022/08/05 06:19:16;;;;;;;6.55;4.32;;;22.40;99.90;;;;;;5021830;28;20053;-59
2022/08/05 06:21:42;;;;;;;8.80;4.60;;;22.20;99.90;;;;;;5038608;28;20036;-60
2022/08/05 06:24:08;;;;;;;7.32;4.32;;;22.30;99.90;;;;;;5041598;28;20037;-59
2022/08/05 06:26:34;;;;;;;7.28;3.72;;;22.60;99.90;;;;;;5029565;28;20466;-59
2022/08/05 06:28:59;;;;;;;10.77;4.25;;;23.20;99.90;;;;;;5035904;28;20051;-60
2022/08/05 06:31:25;;;;;;;6.47;3.60;;;23.90;99.90;;;;;;5026006;28;20041;-59
2022/08/05 06:33:51;;;;;;;7.03;3.63;;;24.40;99.90;;;;;;5034543;28;20532;-59
2022/08/05 06:36:16;;;;;;;5.47;3.67;;;24.50;99.90;;;;;;5033183;28;20120;-60
2022/08/05 06:38:42;;;;;;;5.40;3.22;;;24.80;99.90;;;;;;5031261;28;20108;-59
2022/08/05 06:41:08;;;;;;;7.82;3.95;;;25.00;99.90;;;;;;5027585;28;20114;-59
2022/08/05 06:43:35;;;;;;;5.57;3.15;;;25.00;99.90;;;;;;5034981;28;20135;-60
2022/08/05 06:46:00;;;;;;;4.95;2.75;;;25.50;99.90;;;;;;5019422;28;20033;-59
2022/08/05 06:48:26;;;;;;;6.63;2.67;;;26.00;99.90;;;;;;5003693;28;20053;-59
2022/08/05 06:50:52;;;;;;;5.43;2.45;;;26.40;99.90;;;;;;5015523;28;20098;-60
2022/08/05 06:53:17;;;;;;;4.63;2.17;;;26.60;99.90;;;;;;5042187;28;20366;-59
2022/08/05 06:55:43;;;;;;;5.90;2.30;;;26.80;99.90;;;;;;5027136;28;20041;-59
2022/08/05 06:58:09;;;;;;;6.80;2.53;;;27.20;99.90;;;;;;4994736;28;20045;-60
2022/08/05 07:00:34;;;;;;;5.07;2.35;;;27.20;99.90;;;;;;5029385;28;20463;-59
2022/08/05 07:03:00;;;;;;;3.72;1.75;;;27.40;99.90;;;;;;5052096;28;20515;-59
2022/08/05 07:05:26;;;;;;;4.90;1.60;;;26.60;99.90;;;;;;5040865;28;20049;-59
2022/08/05 07:07:51;;;;;;;2.10;1.30;;;26.30;99.90;;;;;;5014909;28;20056;-60
2022/08/05 07:10:18;;;;;;;2.88;1.20;;;25.80;99.90;;;;;;5010304;28;20112;-59
2022/08/05 07:18:12;;;;;;;2.88;1.30;;;24.80;99.90;;;;;;5046392;28;20128;-59
2022/08/05 07:20:38;;;;;;;4.32;1.35;;;24.70;99.90;;;;;;5031311;28;20450;-59
2022/08/05 07:23:04;;;;;;;3.42;1.55;;;24.60;99.90;;;;;;5045869;28;20025;-59
2022/08/05 07:25:30;;;;;;;4.68;1.60;;;24.40;99.90;;;;;;5046137;28;20353;-59
2022/08/05 07:27:55;;;;;;;3.92;1.40;;;24.00;99.90;;;;;;5032360;28;20037;-59
2022/08/05 07:30:21;;;;;;;3.72;1.58;;;23.70;99.90;;;;;;5033682;28;20055;-60
2022/08/05 07:32:47;;;;;;;5.00;1.55;;;23.20;99.90;;;;;;5042628;28;20087;-59
2022/08/05 07:35:13;;;;;;;2.63;1.40;;;22.80;99.90;;;;;;5014290;28;20077;-59
2022/08/05 07:37:39;;;;;;;4.20;1.40;;;22.30;99.90;;;;;;5031644;28;20041;-59
2022/08/05 07:40:06;;;;;;;5.00;1.52;;;22.30;99.90;;;;;;5013106;28;20406;-59
2022/08/05 07:42:32;;;;;;;3.30;1.35;;;22.40;99.90;;;;;;5031629;28;20033;-59
2022/08/05 07:44:57;;;;;;;4.75;1.48;;;22.50;99.90;;;;;;5031952;28;20033;-59
2022/08/05 07:47:23;;;;;;;3.45;1.20;;;22.60;99.90;;;;;;5031740;28;20033;-59
2022/08/05 07:49:52;;;;;;;4.35;1.35;;;22.80;99.90;;;;;;5013560;28;20715;-59
2022/08/05 07:52:20;;;;;;;3.75;1.30;;;22.80;99.90;;;;;;5045123;28;20066;-58
2022/08/05 07:54:46;;;;;;;3.63;1.40;;;22.90;99.90;;;;;;5031467;28;20045;-59
2022/08/05 07:57:12;;;;;;;4.78;2.05;;;23.20;99.90;;;;;;5031373;28;20049;-58
2022/08/05 07:59:38;;;;;;;3.75;1.50;;;23.30;99.90;;;;;;5030402;28;20458;-59
2022/08/05 08:02:06;;;;;;;2.78;1.27;;;23.30;99.90;;;;;;5031352;28;20113;-58
2022/08/05 08:04:31;;;;;;;3.28;1.48;;;23.20;99.90;;;;;;5035880;28;20041;-59
2022/08/05 08:06:59;;;;;;;3.42;1.30;;;23.30;99.90;;;;;;5050990;28;20041;-59
2022/08/05 08:09:25;;;;;;;3.83;1.30;;;23.20;99.90;;;;;;5034686;28;20073;-59
2022/08/05 08:11:51;;;;;;;4.03;1.52;;;23.10;99.90;;;;;;5029195;28;20048;-58
2022/08/05 08:14:17;;;;;;;4.25;1.20;;;23.00;99.90;;;;;;5019306;28;20033;-59
2022/08/05 08:16:42;;;;;;;6.20;1.35;;;23.00;99.90;;;;;;5031462;28;20061;-59
2022/08/05 08:19:08;;;;;;;4.35;1.38;;;23.10;99.90;;;;;;5031469;28;20042;-59
2022/08/05 08:21:34;;;;;;;4.30;1.38;;;23.20;99.90;;;;;;5036244;28;20072;-59
2022/08/05 08:24:00;;;;;;;2.85;1.17;;;23.30;99.90;;;;;;5055506;28;20059;-59
2022/08/05 08:26:28;;;;;;;3.03;1.63;;;23.40;99.90;;;;;;5042664;28;20045;-59
2022/08/05 08:28:54;;;;;;;4.85;1.70;;;23.50;99.90;;;;;;5006587;28;20119;-59
2022/08/05 08:31:20;;;;;;;2.40;1.20;;;23.50;99.90;;;;;;5050331;28;20183;-59
2022/08/05 08:33:46;;;;;;;6.78;2.20;;;23.60;99.90;;;;;;5037855;28;20057;-60
2022/08/05 08:36:11;;;;;;;3.20;1.10;;;23.70;99.90;;;;;;5026692;28;20045;-59
2022/08/05 08:38:37;;;;;;;5.13;1.05;;;23.70;99.90;;;;;;5039766;28;20107;-59
2022/08/05 08:41:08;;;;;;;2.42;0.90;;;23.70;99.90;;;;;;5036820;28;20045;-60
2022/08/05 08:43:35;;;;;;;4.32;1.10;;;23.70;99.90;;;;;;5054726;28;20094;-59
2022/08/05 08:46:02;;;;;;;1.65;0.90;;;23.70;99.90;;;;;;5048938;28;20087;-59
2022/08/05 08:48:30;;;;;;;4.35;1.20;;;23.70;99.90;;;;;;5017227;28;20147;-59
2022/08/05 08:50:56;;;;;;;8.30;1.95;;;23.70;99.90;;;;;;5027966;28;20116;-59
2022/08/05 08:53:26;;;;;;;6.00;1.80;;;23.70;99.90;;;;;;5016618;28;20124;-59
2022/08/05 08:55:51;;;;;;;4.25;1.13;;;23.80;99.90;;;;;;5034540;28;20711;-59
2022/08/05 08:58:17;;;;;;;4.57;1.73;;;23.70;99.90;;;;;;5034800;28;20050;-58
2022/08/05 09:00:45;;;;;;;7.45;2.53;;;23.70;99.90;;;;;;5033937;28;20164;-59
2022/08/05 09:03:11;;;;;;;3.88;1.35;;;23.50;99.90;;;;;;5034070;28;20454;-59
2022/08/05 09:05:36;;;;;;;2.28;1.13;;;23.50;99.10;;;;;;5030340;28;20055;-60
2022/08/05 09:08:02;;;;;;;2.60;1.02;;;23.40;98.80;;;;;;5034969;28;20041;-59
2022/08/05 09:10:28;;;;;;;1.55;0.90;;;23.40;99.80;;;;;;5033395;28;20116;-59
2022/08/05 09:12:55;;;;;;;2.45;1.00;;;23.30;98.60;;;;;;5030356;28;20045;-60
2022/08/05 09:15:22;;;;;;;3.05;0.90;;;23.20;98.00;;;;;;5043703;28;20116;-59
2022/08/05 09:17:49;;;;;;;4.05;1.20;;;23.20;98.60;;;;;;5038341;28;20478;-59
2022/08/05 09:20:15;;;;;;;4.00;1.30;;;23.20;99.30;;;;;;5011568;28;20046;-59
2022/08/05 09:23:25;;;;;;;3.05;0.80;;;23.20;99.50;;;;;;5041695;28;20110;-58
2022/08/05 09:26:04;;;;;;;1.63;0.63;;;23.20;98.50;;;;;;4985763;28;20046;-58
2022/08/05 09:28:32;;;;;;;5.38;2.08;;;23.20;98.90;;;;;;5030631;28;20049;-58
2022/08/05 09:31:14;;;;;;;4.40;0.88;;;23.20;98.70;;;;;;5015481;28;20081;-59
2022/08/05 09:33:54;;;;;;;2.95;0.68;;;23.10;98.80;;;;;;5001949;28;20229;-59
2022/08/05 09:36:20;;;;;;;1.90;0.82;;;23.20;98.60;;;;;;5034141;28;20164;-59
2022/08/05 09:38:56;;;;;;;1.42;0.90;;;23.20;98.60;;;;;;5016029;28;20041;-59
2022/08/05 09:41:22;;;;;;;1.65;1.00;;;23.10;95.70;;;;;;5015126;28;20124;-59
2022/08/05 09:43:48;;;;;;;1.92;0.90;;;23.10;96.40;;;;;;5033636;28;20188;-59
2022/08/05 09:46:31;;;;;;;4.20;1.00;;;23.10;96.30;;;;;;5023973;28;20041;-59
2022/08/05 09:48:59;;;;;;;2.45;0.75;;;23.20;96.90;;;;;;5022143;28;20455;-59
2022/08/05 09:51:37;;;;;;;4.28;0.93;;;23.00;97.40;;;;;;5019383;28;20121;-59
2022/08/05 09:54:07;;;;;;;2.53;0.70;;;23.20;97.30;;;;;;5035637;28;20041;-59
2022/08/05 09:56:36;;;;;;;1.70;0.85;;;23.10;97.00;;;;;;5027943;28;20037;-59
2022/08/05 09:59:08;;;;;;;1.58;0.70;;;23.20;97.20;;;;;;5033465;28;20041;-59
2022/08/05 10:01:35;;;;;;;3.42;1.27;;;23.10;96.80;;;;;;5032231;28;20456;-59
2022/08/05 10:04:04;;;;;;;3.17;0.90;;;23.10;93.70;;;;;;5015614;28;20041;-59
2022/08/05 10:06:31;;;;;;;2.17;0.85;;;23.10;93.70;;;;;;5033144;28;20517;-59
2022/08/05 10:09:17;;;;;;;1.23;0.68;;;22.90;94.30;;;;;;5028264;28;20522;-59
2022/08/05 10:11:44;;;;;;;3.97;0.70;;;22.80;93.70;;;;;;5029926;28;20041;-59
2022/08/05 10:14:39;;;;;;;2.20;1.30;;;22.80;94.70;;;;;;5033148;28;20105;-59
2022/08/05 10:17:13;;;;;;;1.05;0.60;;;22.60;94.00;;;;;;5005835;28;20115;-59
2022/08/05 10:19:41;;;;;;;2.15;0.70;;;22.60;94.30;;;;;;5032926;28;20045;-58
2022/08/05 10:22:07;;;;;;;3.45;0.80;;;22.60;94.60;;;;;;5032762;28;20072;-59
2022/08/05 10:24:33;;;;;;;2.95;0.75;;;22.70;94.60;;;;;;5044372;28;20036;-59
2022/08/05 10:27:00;;;;;;;2.72;1.00;;;22.80;93.20;;;;;;5035830;28;20029;-60
2022/08/05 10:29:28;;;;;;;2.08;0.70;;;22.90;92.80;;;;;;5042584;28;20098;-59
2022/08/05 10:31:54;;;;;;;3.80;1.10;;;23.10;92.50;;;;;;5034618;28;20045;-59
2022/08/05 10:34:20;;;;;;;1.98;0.85;;;23.20;91.60;;;;;;5045261;28;20052;-59
2022/08/05 10:36:45;;;;;;;2.10;1.08;;;23.00;90.60;;;;;;5033032;28;20056;-60
2022/08/05 10:39:19;;;;;;;2.67;0.82;;;23.20;91.40;;;;;;5033030;28;20030;-60
2022/08/05 10:42:05;;;;;;;0.95;0.60;;;23.30;91.10;;;;;;4997953;28;20049;-60
2022/08/05 10:44:31;;;;;;;2.67;0.70;;;23.30;90.20;;;;;;5002498;28;20458;-61
2022/08/05 10:46:57;;;;;;;2.58;1.00;;;23.20;90.20;;;;;;5033085;28;20043;-60
2022/08/05 10:49:25;;;;;;;3.83;1.00;;;23.10;90.40;;;;;;5032337;28;20045;-59
2022/08/05 10:51:59;;;;;;;0.85;0.40;;;23.10;90.80;;;;;;5031266;28;20045;-60
2022/08/05 10:55:05;;;;;;;0.52;0.52;;;23.10;90.40;;;;;;5032749;28;20033;-60
2022/08/05 10:57:31;;;;;;;1.25;0.55;;;23.20;90.60;;;;;;5012220;28;20056;-59
2022/08/05 11:00:20;;;;;;;4.43;0.75;;;23.40;90.60;;;;;;5031756;28;20127;-59
2022/08/05 11:03:04;;;;;;;0.68;0.50;;;23.60;90.60;;;;;;5028706;28;20041;-60
2022/08/05 11:05:31;;;;;;;1.00;0.30;;;23.80;90.40;;;;;;5032279;28;20458;-60
2022/08/05 11:07:59;;;;;;;2.80;1.38;;;23.80;90.20;;;;;;5032244;28;20045;-60
2022/08/05 11:10:26;;;;;;;2.83;0.90;;;23.70;90.70;;;;;;5030416;28;20114;-59
2022/08/05 11:12:52;;;;;;;2.22;0.40;;;23.70;90.60;;;;;;5011148;28;20354;-59
2022/08/05 11:15:27;;;;;;;7.32;2.50;;;23.80;90.50;;;;;;5014550;28;20049;-59
2022/08/05 11:18:04;;;;;;;2.45;0.75;;;23.90;90.30;;;;;;5031909;28;20490;-59
2022/08/05 11:20:40;;;;;;;1.83;0.90;;;23.80;90.30;;;;;;5031390;28;20038;-59
2022/08/05 11:23:24;;;;;;;0.88;0.43;;;23.60;90.90;;;;;;5013938;28;20604;-59
2022/08/05 11:26:10;;;;;;;1.27;0.40;;;23.50;91.00;;;;;;5014731;28;20411;-59
2022/08/05 11:28:42;;;;;;;2.33;0.30;;;23.50;91.30;;;;;;5046044;28;20083;-58
2022/08/05 11:31:08;;;;;;;2.00;0.47;;;23.40;90.40;;;;;;5030766;28;20056;-59
2022/08/05 11:33:47;;;;;;;1.55;0.38;;;23.40;90.40;;;;;;5032040;28;20045;-59
2022/08/05 11:36:17;;;;;;;1.95;0.30;;;23.20;90.50;;;;;;5031736;28;20503;-60
2022/08/05 11:38:43;;;;;;;1.65;0.40;;;23.20;91.50;;;;;;5033460;28;20470;-59
2022/08/05 11:41:14;;;;;;;2.97;0.80;;;23.20;91.30;;;;;;5038279;28;20048;-59
2022/08/05 11:43:57;;;;;;;2.97;0.60;;;23.20;92.00;;;;;;5031439;28;20197;-59
2022/08/05 11:46:26;;;;;;;0.35;0.30;;;23.20;91.70;;;;;;5031916;28;20041;-59
2022/08/05 11:48:53;;;;;;;3.47;0.60;;;23.10;91.90;;;;;;5046894;28;20044;-59
2022/08/05 11:51:19;;;;;;;1.27;0.70;;;23.20;92.30;;;;;;5044366;28;20041;-59
2022/08/05 11:53:46;;;;;;;2.13;0.68;;;23.10;90.70;;;;;;5038134;28;20042;-59
2022/08/05 11:56:11;;;;;;;0.43;0.43;;;23.10;91.00;;;;;;5031674;28;20037;-59
2022/08/05 11:58:40;;;;;;;3.92;1.30;;;23.00;91.60;;;;;;5031708;28;20056;-59
2022/08/05 12:01:05;;;;;;;2.38;0.70;;;23.10;92.70;;;;;;5006469;28;20462;-59
2022/08/05 12:03:52;;;;;;;2.25;0.93;;;22.90;92.00;;;;;;5031721;28;20121;-61
2022/08/05 12:06:27;;;;;;;6.82;2.33;;;22.90;92.10;;;;;;5036168;28;20416;-59
2022/08/05 12:08:55;;;;;;;1.77;0.40;;;22.90;93.00;;;;;;5051030;28;20478;-59
2022/08/05 12:11:25;;;;;;;3.83;0.68;;;22.90;93.20;;;;;;5036007;28;20518;-59
2022/08/05 12:14:02;;;;;;;7.82;2.78;;;23.00;93.60;;;;;;5031321;28;20509;-59
2022/08/05 12:16:35;;;;;;;3.65;1.00;;;22.90;93.10;;;;;;5030822;28;20253;-59
2022/08/05 12:19:01;;;;;;;3.90;0.63;;;22.70;92.50;;;;;;5031525;28;20077;-59
2022/08/05 12:21:30;;;;;;;1.17;0.50;;;22.70;93.20;;;;;;5020894;28;20276;-59
2022/08/05 12:24:06;;;;;;;1.08;0.28;;;22.60;93.00;;;;;;5036967;28;20488;-60
2022/08/05 12:26:36;;;;;;;1.98;0.50;;;22.50;94.20;;;;;;5037845;28;20030;-59
2022/08/05 12:29:08;;;;;;;1.10;0.60;;;22.50;94.80;;;;;;5017903;28;20052;-59
2022/08/05 12:31:34;;;;;;;3.38;0.70;;;22.50;94.90;;;;;;5012333;28;20363;-59
2022/08/05 12:34:02;;;;;;;2.00;0.45;;;22.30;94.60;;;;;;5031260;28;20057;-59
2022/08/05 12:36:29;;;;;;;1.23;0.55;;;22.30;94.70;;;;;;5031273;28;20128;-59
2022/08/05 12:38:57;;;;;;;1.80;0.65;;;22.40;94.70;;;;;;5031012;28;20069;-60
2022/08/05 12:41:33;;;;;;;3.75;0.60;;;22.30;94.30;;;;;;5029904;28;20041;-60
2022/08/05 12:44:02;;;;;;;1.85;0.70;;;22.40;94.50;;;;;;5016989;28;20037;-61
2022/08/05 12:46:30;;;;;;;0.95;0.63;;;22.30;94.60;;;;;;5031972;28;20439;-59
2022/08/05 12:49:09;;;;;;;4.85;1.50;;;22.20;95.30;;;;;;5027090;28;20042;-59
2022/08/05 12:51:58;;;;;;;3.25;1.13;;;22.30;95.70;;;;;;5029540;28;20521;-59
2022/08/05 12:54:26;;;;;;;2.67;0.60;;;22.20;95.20;;;;;;5045285;28;20041;-59
2022/08/05 12:57:02;;;;;;;2.83;0.70;;;22.30;94.80;;;;;;5031251;28;20231;-59
2022/08/05 12:59:33;;;;;;;2.20;0.68;;;22.20;94.60;;;;;;5017796;28;20110;-59